createdAt,value
2023-01-15T00:01:32.559Z,72.54
2023-01-15T00:03:34.231Z,73.75
2023-01-15T00:05:36.345Z,73.91
2023-01-15T00:07:38.103Z,73.52
2023-01-15T00:09:39.718Z,73.37
2023-01-15T00:11:41.416Z,73.45
2023-01-15T00:13:43.261Z,73.29
2023-01-15T00:15:44.959Z,73.07
2023-01-15T00:17:47.970Z,73.24
2023-01-15T00:19:49.570Z,72.90
2023-01-15T00:21:51.155Z,73.16
2023-01-15T00:23:53.527Z,73.40
2023-01-15T00:25:56.565Z,72.78
2023-01-15T00:27:58.237Z,72.95
2023-01-15T00:30:00.129Z,72.70
2023-01-15T00:32:03.791Z,72.20
2023-01-15T00:34:06.738Z,71.78
2023-01-15T00:36:08.557Z,72.42
2023-01-15T00:38:10.130Z,72.16
2023-01-15T00:40:13.089Z,72.02
2023-01-15T00:42:14.872Z,71.85
2023-01-15T00:44:17.186Z,71.65
2023-01-15T00:46:18.875Z,71.54
2023-01-15T00:48:20.546Z,71.50
2023-01-15T00:50:23.573Z,71.34
2023-01-15T00:52:25.211Z,71.54
2023-01-15T00:54:26.845Z,71.57
2023-01-15T00:56:28.559Z,71.50
2023-01-15T00:58:30.253Z,71.62
2023-01-15T01:00:31.917Z,71.78
2023-01-15T01:02:33.631Z,71.32
2023-01-15T01:04:35.412Z,71.74
2023-01-15T01:06:38.433Z,71.31
2023-01-15T01:08:39.977Z,71.94
2023-01-15T01:10:41.554Z,71.97
2023-01-15T01:12:43.175Z,72.17
2023-01-15T01:14:44.707Z,72.49
2023-01-15T01:16:46.365Z,72.70
2023-01-15T01:18:48.018Z,73.04
2023-01-15T01:20:49.667Z,72.53
2023-01-15T01:22:53.016Z,72.37
2023-01-15T01:24:54.639Z,72.81
2023-01-15T01:26:56.223Z,72.62
2023-01-15T01:28:58.141Z,72.79
2023-01-15T01:30:59.718Z,72.58
2023-01-15T01:33:01.312Z,72.38
2023-01-15T01:35:03.317Z,72.56
2023-01-15T01:37:05.057Z,72.84
2023-01-15T01:39:13.708Z,72.75
2023-01-15T01:41:15.770Z,73.07
2023-01-15T01:43:20.375Z,73.08
2023-01-15T01:45:26.570Z,73.16
2023-01-15T01:47:31.518Z,73.06
2023-01-15T01:49:34.794Z,73.47
2023-01-15T01:51:41.624Z,73.19
2023-01-15T01:53:43.891Z,73.31
2023-01-15T01:55:47.572Z,73.67
2023-01-15T01:57:51.664Z,73.72
2023-01-15T01:59:53.730Z,73.82
2023-01-15T02:01:55.835Z,73.89
2023-01-15T02:03:57.798Z,73.84
2023-01-15T02:06:02.532Z,73.73
2023-01-15T02:08:12.235Z,74.13
2023-01-15T02:10:15.396Z,73.92
2023-01-15T02:12:24.893Z,73.83
2023-01-15T02:14:32.725Z,73.88
2023-01-15T02:16:40.482Z,74.31
2023-01-15T02:18:49.534Z,74.97
2023-01-15T02:20:56.521Z,74.92
2023-01-15T02:23:33.412Z,75.85
2023-01-15T02:25:54.719Z,77.06
2023-01-15T02:28:04.268Z,82.28
2023-01-15T02:30:10.612Z,80.54
2023-01-15T02:32:16.972Z,80.07
2023-01-15T02:34:25.362Z,79.18
2023-01-15T02:36:30.614Z,80.47
2023-01-15T02:38:36.069Z,80.47
2023-01-15T02:40:39.632Z,80.89
2023-01-15T02:42:43.899Z,83.40
2023-01-15T02:44:51.317Z,85.72
2023-01-15T02:46:55.412Z,93.73
2023-01-15T02:48:58.724Z,93.47
2023-01-15T02:51:07.415Z,86.94
2023-01-15T02:53:14.253Z,84.03
2023-01-15T02:55:22.054Z,83.01
2023-01-15T02:57:28.145Z,82.75
2023-01-15T02:59:35.097Z,82.74
2023-01-15T03:01:50.817Z,82.78
2023-01-15T03:04:02.348Z,82.78
2023-01-15T03:06:10.809Z,82.40
2023-01-15T03:08:12.579Z,81.56
2023-01-15T03:10:14.929Z,79.27
2023-01-15T03:12:24.404Z,78.97
2023-01-15T03:14:35.870Z,78.49
2023-01-15T03:16:43.292Z,77.77
2023-01-15T03:18:49.716Z,76.20
2023-01-15T03:20:57.512Z,76.72
2023-01-15T03:23:09.766Z,76.64
2023-01-15T03:25:16.460Z,76.46
2023-01-15T03:27:18.251Z,75.27
2023-01-15T03:29:21.103Z,75.55
2023-01-15T03:31:22.867Z,75.13
2023-01-15T03:33:25.941Z,75.18
2023-01-15T03:35:45.206Z,74.79
2023-01-15T03:37:46.992Z,74.94
2023-01-15T03:39:49.155Z,73.83
2023-01-15T03:42:04.599Z,74.57
2023-01-15T03:44:16.624Z,74.24
2023-01-15T03:46:42.596Z,73.82
2023-01-15T03:48:51.595Z,73.57
2023-01-15T03:50:59.934Z,73.20
2023-01-15T03:53:10.469Z,72.86
2023-01-15T03:55:16.406Z,72.61
2023-01-15T03:57:27.201Z,72.95
2023-01-15T03:59:33.442Z,72.43
2023-01-15T04:01:39.812Z,70.35
2023-01-15T04:03:43.604Z,72.30
2023-01-15T04:05:47.544Z,72.38
2023-01-15T04:07:51.604Z,71.98
2023-01-15T04:09:53.377Z,71.20
2023-01-15T04:12:01.333Z,70.95
2023-01-15T04:14:03.081Z,70.16
2023-01-15T04:16:05.536Z,69.87
2023-01-15T04:18:07.107Z,70.34
2023-01-15T04:20:10.210Z,69.51
2023-01-15T04:22:13.179Z,69.36
2023-01-15T04:24:14.858Z,69.13
2023-01-15T04:26:17.174Z,69.17
2023-01-15T04:28:18.734Z,69.13
2023-01-15T04:30:20.445Z,69.25
2023-01-15T04:32:22.129Z,69.41
2023-01-15T04:34:24.845Z,69.24
2023-01-15T04:36:26.416Z,68.87
2023-01-15T04:38:29.555Z,69.02
2023-01-15T04:40:32.192Z,68.93
2023-01-15T04:42:33.745Z,68.97
2023-01-15T04:44:37.081Z,68.66
2023-01-15T04:46:40.518Z,68.28
2023-01-15T04:48:42.200Z,68.34
2023-01-15T04:50:43.769Z,68.30
2023-01-15T04:52:45.318Z,68.32
2023-01-15T04:54:48.245Z,67.85
2023-01-15T04:56:52.019Z,67.52
2023-01-15T04:58:53.569Z,67.55
2023-01-15T05:00:55.083Z,67.46
2023-01-15T05:02:56.624Z,66.86
2023-01-15T05:04:58.301Z,67.22
2023-01-15T05:07:01.064Z,66.70
2023-01-15T05:09:03.645Z,66.54
2023-01-15T05:11:07.600Z,66.20
2023-01-15T05:13:09.221Z,66.07
2023-01-15T05:15:10.734Z,65.94
2023-01-15T05:17:12.637Z,66.18
2023-01-15T05:19:14.224Z,66.44
2023-01-15T05:21:18.138Z,66.28
2023-01-15T05:23:19.721Z,65.25
2023-01-15T05:25:21.488Z,66.05
2023-01-15T05:27:24.396Z,65.74
2023-01-15T05:29:26.041Z,65.21
2023-01-15T05:31:29.370Z,65.42
2023-01-15T05:33:30.919Z,65.12
2023-01-15T05:35:32.656Z,64.10
2023-01-15T05:37:34.184Z,64.45
2023-01-15T05:39:36.014Z,64.60
2023-01-15T05:41:37.663Z,64.97
2023-01-15T05:43:40.695Z,64.77
2023-01-15T05:45:42.259Z,64.98
2023-01-15T05:47:43.913Z,64.89
2023-01-15T05:49:45.845Z,64.70
2023-01-15T05:51:47.895Z,64.51
2023-01-15T05:53:49.467Z,64.50
2023-01-15T05:55:51.056Z,64.15
2023-01-15T05:57:52.621Z,64.44
2023-01-15T05:59:55.572Z,64.76
2023-01-15T06:01:58.208Z,64.41
2023-01-15T06:04:00.664Z,64.46
2023-01-15T06:06:03.690Z,65.02
2023-01-15T06:08:05.739Z,64.37
2023-01-15T06:10:08.243Z,64.34
2023-01-15T06:12:09.977Z,64.28
2023-01-15T06:14:12.256Z,63.90
2023-01-15T06:16:20.746Z,63.93
2023-01-15T06:18:23.308Z,63.91
2023-01-15T06:20:24.850Z,63.50
2023-01-15T06:22:26.626Z,63.22
2023-01-15T06:24:28.182Z,63.27
2023-01-15T06:26:29.738Z,62.98
2023-01-15T06:28:31.619Z,62.89
2023-01-15T06:30:34.455Z,63.02
2023-01-15T06:32:37.355Z,62.90
2023-01-15T06:34:38.897Z,61.95
2023-01-15T06:36:40.524Z,62.18
2023-01-15T06:38:43.119Z,62.19
2023-01-15T06:40:44.730Z,61.74
2023-01-15T06:42:46.337Z,61.73
2023-01-15T06:44:47.913Z,62.32
2023-01-15T06:46:51.453Z,61.62
2023-01-15T06:48:55.162Z,62.24
2023-01-15T06:50:56.832Z,62.65
2023-01-15T06:52:58.432Z,62.31
2023-01-15T06:54:59.988Z,62.21
2023-01-15T06:57:01.875Z,62.53
2023-01-15T06:59:03.457Z,62.08
2023-01-15T07:01:09.116Z,62.02
2023-01-15T07:03:11.287Z,61.92
2023-01-15T07:05:14.198Z,62.22
2023-01-15T07:07:16.475Z,62.43
2023-01-15T07:09:18.006Z,62.95
2023-01-15T07:11:19.541Z,62.83
2023-01-15T07:13:21.161Z,62.59
2023-01-15T07:15:22.784Z,62.59
2023-01-15T07:17:24.322Z,62.67
2023-01-15T07:19:25.960Z,63.18
2023-01-15T07:21:28.887Z,63.55
2023-01-15T07:23:30.436Z,62.70
2023-01-15T07:25:32.088Z,62.12
2023-01-15T07:27:33.590Z,61.92
2023-01-15T07:29:35.197Z,61.21
2023-01-15T07:31:36.975Z,61.30
2023-01-15T07:33:40.095Z,61.54
2023-01-15T07:35:41.692Z,61.12
2023-01-15T07:37:44.609Z,61.05
2023-01-15T07:39:46.372Z,60.68
2023-01-15T07:41:48.057Z,61.14
2023-01-15T07:43:49.603Z,60.50
2023-01-15T07:45:51.202Z,60.37
2023-01-15T07:47:54.145Z,59.43
2023-01-15T07:49:55.830Z,59.50
2023-01-15T07:51:57.557Z,59.69
2023-01-15T07:54:00.464Z,59.28
2023-01-15T07:56:02.516Z,59.48
2023-01-15T07:58:04.109Z,60.04
2023-01-15T08:00:07.962Z,61.06
2023-01-15T08:02:09.907Z,60.85
2023-01-15T08:04:11.736Z,60.94
2023-01-15T08:06:13.379Z,61.09
2023-01-15T08:08:15.441Z,61.33
2023-01-15T08:10:18.647Z,61.44
2023-01-15T08:12:20.249Z,60.90
2023-01-15T08:14:21.873Z,61.07
2023-01-15T08:16:23.485Z,62.19
2023-01-15T08:18:25.169Z,60.84
2023-01-15T08:20:27.171Z,61.18
2023-01-15T08:22:29.007Z,60.28
2023-01-15T08:24:30.577Z,60.61
2023-01-15T08:26:34.688Z,59.63
2023-01-15T08:28:36.259Z,59.67
2023-01-15T08:30:40.020Z,59.26
2023-01-15T08:32:41.694Z,59.20
2023-01-15T08:34:43.283Z,58.85
2023-01-15T08:36:44.888Z,59.87
2023-01-15T08:38:48.717Z,59.85
2023-01-15T08:40:53.232Z,59.52
2023-01-15T08:42:56.691Z,60.58
2023-01-15T08:44:58.304Z,59.50
2023-01-15T08:47:00.152Z,60.19
2023-01-15T08:49:01.760Z,60.17
2023-01-15T08:51:05.213Z,60.17
2023-01-15T08:53:06.767Z,59.74
2023-01-15T08:55:08.840Z,59.56
2023-01-15T08:57:10.535Z,59.25
2023-01-15T08:59:13.645Z,59.44
2023-01-15T09:01:15.342Z,59.72
2023-01-15T09:03:17.092Z,59.48
2023-01-15T09:05:19.819Z,59.43
2023-01-15T09:07:21.425Z,60.12
2023-01-15T09:09:23.619Z,59.53
2023-01-15T09:11:26.825Z,60.16
2023-01-15T09:13:29.641Z,60.65
2023-01-15T09:15:35.693Z,59.47
2023-01-15T09:17:37.246Z,59.51
2023-01-15T09:19:38.777Z,59.78
2023-01-15T09:21:40.323Z,59.71
2023-01-15T09:23:41.939Z,58.84
2023-01-15T09:25:53.018Z,59.33
2023-01-15T09:27:55.605Z,58.71
2023-01-15T09:29:57.245Z,59.04
2023-01-15T09:32:00.182Z,59.26
2023-01-15T09:34:01.989Z,58.55
2023-01-15T09:36:03.942Z,58.71
2023-01-15T09:38:05.509Z,59.57
2023-01-15T09:40:18.807Z,59.45
2023-01-15T09:42:42.234Z,59.35
2023-01-15T09:44:59.788Z,58.82
2023-01-15T09:47:11.294Z,58.90
2023-01-15T09:49:26.280Z,59.30
2023-01-15T09:51:36.330Z,59.30
2023-01-15T09:53:53.207Z,58.89
2023-01-15T09:55:55.083Z,59.08
2023-01-15T09:57:59.777Z,58.98
2023-01-15T10:00:04.367Z,58.81
2023-01-15T10:02:19.853Z,59.02
2023-01-15T10:04:35.991Z,58.81
2023-01-15T10:06:45.281Z,59.00
2023-01-15T10:08:48.653Z,59.59
2023-01-15T10:10:55.411Z,59.46
2023-01-15T10:13:02.595Z,59.72
2023-01-15T10:15:16.613Z,59.68
2023-01-15T10:17:24.765Z,59.52
2023-01-15T10:19:34.327Z,58.63
2023-01-15T10:21:52.034Z,59.32
2023-01-15T10:24:02.718Z,59.80
2023-01-15T10:26:13.651Z,59.55
2023-01-15T10:28:20.006Z,59.94
2023-01-15T10:30:32.033Z,59.54
2023-01-15T10:32:56.898Z,59.67
2023-01-15T10:35:11.386Z,60.16
2023-01-15T10:37:19.433Z,59.07
2023-01-15T10:39:30.033Z,58.18
2023-01-15T10:41:56.777Z,57.74
2023-01-15T10:44:05.297Z,56.73
2023-01-15T10:46:13.158Z,57.81
2023-01-15T10:48:23.913Z,56.99
2023-01-15T10:50:27.564Z,56.77
2023-01-15T10:52:32.709Z,57.50
2023-01-15T10:54:39.264Z,57.74
2023-01-15T10:56:44.142Z,57.02
2023-01-15T10:58:52.350Z,57.83
2023-01-15T11:00:58.615Z,57.34
2023-01-15T11:03:02.519Z,57.24
2023-01-15T11:05:06.859Z,56.24
2023-01-15T11:07:11.203Z,57.07
2023-01-15T11:09:20.126Z,57.09
2023-01-15T11:11:25.393Z,56.68
2023-01-15T11:13:27.116Z,57.22
2023-01-15T11:15:28.696Z,57.05
2023-01-15T11:17:33.579Z,57.70
2023-01-15T11:19:37.705Z,56.92
2023-01-15T11:21:42.889Z,58.42
2023-01-15T11:23:45.191Z,57.36
2023-01-15T11:25:51.899Z,56.75
2023-01-15T11:27:53.475Z,57.32
2023-01-15T11:29:56.775Z,56.44
2023-01-15T11:31:58.290Z,56.35
2023-01-15T11:34:01.259Z,57.08
2023-01-15T11:36:05.969Z,57.46
2023-01-15T11:38:14.281Z,57.32
2023-01-15T11:40:18.334Z,57.14
2023-01-15T11:42:20.542Z,57.39
2023-01-15T11:44:23.391Z,57.08
2023-01-15T11:46:27.899Z,57.58
2023-01-15T11:48:29.612Z,57.58
2023-01-15T11:50:31.221Z,57.39
2023-01-15T11:52:32.793Z,58.28
2023-01-15T11:54:39.701Z,58.50
2023-01-15T11:56:42.881Z,58.43
2023-01-15T11:58:47.520Z,58.38
2023-01-15T12:00:50.818Z,57.91
2023-01-15T12:02:55.367Z,58.63
2023-01-15T12:05:00.094Z,57.40
2023-01-15T12:07:05.267Z,58.32
2023-01-15T12:09:16.953Z,58.44
2023-01-15T12:11:34.627Z,58.55
2023-01-15T12:13:47.283Z,57.77
2023-01-15T12:16:02.947Z,58.77
2023-01-15T12:18:22.128Z,57.95
2023-01-15T12:20:29.618Z,58.78
2023-01-15T12:22:51.033Z,58.79
2023-01-15T12:25:23.374Z,58.72
2023-01-15T12:27:52.801Z,58.30
2023-01-15T12:30:00.497Z,58.29
2023-01-15T12:32:07.670Z,59.09
2023-01-15T12:34:19.248Z,58.30
2023-01-15T12:36:25.885Z,58.58
2023-01-15T12:38:40.248Z,57.94
2023-01-15T12:40:48.813Z,57.76
2023-01-15T12:42:53.999Z,56.96
2023-01-15T12:45:01.149Z,57.84
2023-01-15T12:47:07.384Z,58.04
2023-01-15T12:49:19.574Z,58.13
2023-01-15T12:51:29.525Z,57.88
2023-01-15T12:53:39.860Z,58.51
2023-01-15T12:55:46.100Z,58.71
2023-01-15T12:57:51.122Z,58.70
2023-01-15T12:59:59.086Z,59.77
2023-01-15T13:02:11.023Z,59.16
2023-01-15T13:04:16.758Z,59.90
2023-01-15T13:06:19.608Z,59.44
2023-01-15T13:08:26.787Z,59.13
2023-01-15T13:10:30.547Z,59.99
2023-01-15T13:12:32.859Z,59.24
2023-01-15T13:14:34.397Z,59.42
2023-01-15T13:16:44.889Z,59.32
2023-01-15T13:18:58.520Z,59.47
2023-01-15T13:21:05.478Z,58.45
2023-01-15T13:23:15.186Z,59.11
2023-01-15T13:25:34.325Z,58.00
2023-01-15T13:27:57.102Z,57.20
2023-01-15T13:30:31.690Z,55.88
2023-01-15T13:32:39.952Z,55.27
2023-01-15T13:34:46.252Z,54.56
2023-01-15T13:36:52.529Z,55.34
2023-01-15T13:38:58.729Z,53.96
2023-01-15T13:41:00.578Z,53.67
2023-01-15T13:43:03.561Z,54.15
2023-01-15T13:45:24.196Z,54.18
2023-01-15T13:47:28.373Z,52.84
2023-01-15T13:49:34.588Z,53.11
2023-01-15T13:51:36.230Z,53.66
2023-01-15T13:53:43.519Z,52.94
2023-01-15T13:55:52.498Z,52.50
2023-01-15T13:57:54.087Z,52.23
2023-01-15T13:59:55.832Z,53.53
2023-01-15T14:01:57.631Z,53.41
2023-01-15T14:04:02.886Z,53.81
2023-01-15T14:06:08.061Z,54.68
2023-01-15T14:08:16.677Z,52.54
2023-01-15T14:10:39.069Z,51.30
2023-01-15T14:12:50.011Z,52.09
2023-01-15T14:15:12.664Z,51.14
2023-01-15T14:17:40.813Z,51.24
2023-01-15T14:20:03.527Z,52.40
2023-01-15T14:22:29.914Z,52.74
2023-01-15T14:24:56.986Z,53.69
2023-01-15T14:27:05.805Z,52.82
2023-01-15T14:29:33.891Z,51.97
2023-01-15T14:31:46.034Z,51.93
2023-01-15T14:33:58.214Z,51.83
2023-01-15T14:36:10.840Z,51.07
2023-01-15T14:38:17.632Z,51.53
2023-01-15T14:40:22.181Z,51.31
2023-01-15T14:42:28.376Z,52.27
2023-01-15T14:44:32.705Z,51.73
2023-01-15T14:46:35.184Z,52.17
2023-01-15T14:48:38.450Z,52.10
2023-01-15T14:50:41.304Z,51.59
2023-01-15T14:52:46.129Z,52.41
2023-01-15T14:54:49.480Z,53.16
2023-01-15T14:56:55.147Z,53.67
2023-01-15T14:59:03.380Z,51.95
2023-01-15T15:01:17.132Z,53.67
2023-01-15T15:03:22.807Z,52.65
2023-01-15T15:05:24.816Z,52.34
2023-01-15T15:07:28.144Z,53.37
2023-01-15T15:09:36.373Z,52.82
2023-01-15T15:11:47.092Z,53.66
2023-01-15T15:13:50.183Z,53.54
2023-01-15T15:15:59.697Z,53.32
2023-01-15T15:18:04.830Z,52.80
2023-01-15T15:20:31.847Z,52.59
2023-01-15T15:22:38.536Z,52.92
2023-01-15T15:24:47.422Z,52.42
2023-01-15T15:26:50.771Z,52.84
2023-01-15T15:28:59.404Z,52.64
2023-01-15T15:31:01.220Z,53.49
2023-01-15T15:33:04.903Z,53.27
2023-01-15T15:35:23.594Z,53.68
2023-01-15T15:37:27.624Z,54.08
2023-01-15T15:39:38.192Z,53.75
2023-01-15T15:41:42.337Z,54.21
2023-01-15T15:43:52.068Z,54.40
2023-01-15T15:45:55.206Z,54.30
2023-01-15T15:47:57.573Z,54.41
2023-01-15T15:49:59.222Z,54.31
2023-01-15T15:52:00.897Z,54.38
2023-01-15T15:54:14.260Z,55.00
2023-01-15T15:56:16.144Z,55.45
2023-01-15T15:58:24.807Z,55.23
2023-01-15T16:00:31.272Z,55.42
2023-01-15T16:02:37.004Z,54.88
2023-01-15T16:04:44.925Z,55.14
2023-01-15T16:06:46.535Z,55.07
2023-01-15T16:08:53.261Z,55.60
2023-01-15T16:10:57.985Z,54.87
2023-01-15T16:13:03.785Z,54.99
2023-01-15T16:15:06.589Z,54.66
2023-01-15T16:17:13.431Z,54.67
2023-01-15T16:19:19.655Z,54.84
2023-01-15T16:21:33.883Z,55.11
2023-01-15T16:23:35.494Z,55.08
2023-01-15T16:25:41.776Z,54.74
2023-01-15T16:27:43.485Z,54.69
2023-01-15T16:29:49.268Z,54.34
2023-01-15T16:31:51.730Z,54.37
2023-01-15T16:33:57.386Z,54.00
2023-01-15T16:36:00.228Z,54.44
2023-01-15T16:38:03.487Z,53.85
2023-01-15T16:40:06.458Z,54.39
2023-01-15T16:42:25.866Z,54.77
2023-01-15T16:44:37.227Z,54.58
2023-01-15T16:46:49.917Z,54.01
2023-01-15T16:49:23.037Z,53.89
2023-01-15T16:51:31.417Z,53.85
2023-01-15T16:53:39.543Z,54.18
2023-01-15T16:55:43.867Z,53.93
2023-01-15T16:57:45.461Z,53.91
2023-01-15T16:59:55.383Z,53.41
2023-01-15T17:02:04.496Z,53.28
2023-01-15T17:04:24.256Z,53.14
2023-01-15T17:06:27.657Z,53.39
2023-01-15T17:08:33.552Z,53.08
2023-01-15T17:10:35.415Z,52.63
2023-01-15T17:12:39.967Z,53.11
2023-01-15T17:14:41.645Z,53.02
2023-01-15T17:16:43.270Z,52.70
2023-01-15T17:18:45.304Z,52.29
2023-01-15T17:20:48.447Z,52.74
2023-01-15T17:22:50.896Z,52.39
2023-01-15T17:24:55.352Z,52.03
2023-01-15T17:26:56.899Z,51.86
2023-01-15T17:28:58.489Z,52.19
2023-01-15T17:31:01.921Z,51.05
2023-01-15T17:33:05.861Z,51.55
2023-01-15T17:35:21.401Z,51.47
2023-01-15T17:37:24.357Z,51.36
2023-01-15T17:39:25.957Z,51.27
2023-01-15T17:41:27.500Z,51.06
2023-01-15T17:43:29.052Z,51.02
2023-01-15T17:45:33.855Z,51.04
2023-01-15T17:47:35.416Z,51.57
2023-01-15T17:49:37.285Z,51.22
2023-01-15T17:51:38.853Z,51.48
2023-01-15T17:53:41.957Z,51.16
2023-01-15T17:55:43.556Z,51.24
2023-01-15T17:57:45.680Z,51.53
2023-01-15T17:59:47.253Z,51.67
2023-01-15T18:01:48.894Z,51.81
2023-01-15T18:03:53.163Z,51.89
2023-01-15T18:05:54.813Z,52.35
2023-01-15T18:07:58.035Z,52.16
2023-01-15T18:10:01.724Z,52.24
2023-01-15T18:12:04.286Z,53.03
2023-01-15T18:14:05.877Z,52.22
2023-01-15T18:16:07.715Z,52.38
2023-01-15T18:18:09.585Z,52.65
2023-01-15T18:20:11.820Z,52.69
2023-01-15T18:22:13.407Z,52.19
2023-01-15T18:24:15.087Z,52.41
2023-01-15T18:26:18.054Z,52.35
2023-01-15T18:28:19.748Z,52.39
2023-01-15T18:30:21.446Z,51.92
2023-01-15T18:32:23.118Z,52.30
2023-01-15T18:34:24.711Z,52.46
2023-01-15T18:36:27.336Z,52.49
2023-01-15T18:38:29.050Z,52.34
2023-01-15T18:40:30.665Z,52.39
2023-01-15T18:42:33.631Z,52.03
2023-01-15T18:44:35.472Z,52.19
2023-01-15T18:46:37.095Z,52.24
2023-01-15T18:48:38.690Z,52.52
2023-01-15T18:50:40.283Z,52.31
2023-01-15T18:52:41.967Z,52.41
2023-01-15T18:54:43.558Z,52.31
2023-01-15T18:56:45.148Z,52.44
2023-01-15T18:58:48.057Z,52.58
2023-01-15T19:00:49.740Z,52.13
2023-01-15T19:02:51.822Z,52.19
2023-01-15T19:04:53.395Z,52.42
2023-01-15T19:06:55.019Z,52.32
2023-01-15T19:08:58.206Z,52.24
2023-01-15T19:10:59.792Z,52.27
2023-01-15T19:13:01.457Z,52.17
2023-01-15T19:15:05.678Z,52.54
2023-01-15T19:17:17.606Z,52.07
2023-01-15T19:19:19.245Z,51.77
2023-01-15T19:21:21.434Z,52.32
2023-01-15T19:23:23.039Z,52.29
2023-01-15T19:25:25.622Z,52.58
2023-01-15T19:27:27.182Z,52.50
2023-01-15T19:29:29.005Z,52.03
2023-01-15T19:31:31.987Z,52.18
2023-01-15T19:33:34.242Z,51.70
2023-01-15T19:35:36.029Z,51.86
2023-01-15T19:37:37.846Z,51.92
2023-01-15T19:39:39.389Z,52.05
2023-01-15T19:41:41.018Z,52.23
2023-01-15T19:43:42.635Z,51.55
2023-01-15T19:45:45.242Z,52.21
2023-01-15T19:47:48.869Z,51.62
2023-01-15T19:49:50.539Z,51.80
2023-01-15T19:51:52.086Z,51.69
2023-01-15T19:53:53.628Z,51.66
2023-01-15T19:55:55.192Z,51.86
2023-01-15T19:57:58.674Z,51.84
2023-01-15T20:00:00.216Z,52.19
2023-01-15T20:02:01.905Z,51.91
2023-01-15T20:04:05.406Z,51.57
2023-01-15T20:06:07.640Z,52.11
2023-01-15T20:08:09.595Z,52.10
2023-01-15T20:10:13.679Z,51.74
2023-01-15T20:12:15.238Z,52.19
2023-01-15T20:14:16.827Z,52.45
2023-01-15T20:16:19.759Z,52.22
2023-01-15T20:18:21.767Z,52.08
2023-01-15T20:20:25.136Z,52.05
2023-01-15T20:22:29.018Z,51.83
2023-01-15T20:24:30.693Z,52.11
2023-01-15T20:26:35.413Z,51.69
2023-01-15T20:28:37.237Z,51.75
2023-01-15T20:30:40.680Z,51.97
2023-01-15T20:32:44.371Z,52.08
2023-01-15T20:34:46.273Z,51.46
2023-01-15T20:36:49.257Z,52.04
2023-01-15T20:38:50.852Z,51.79
2023-01-15T20:40:52.464Z,51.43
2023-01-15T20:42:54.609Z,51.46
2023-01-15T20:44:56.462Z,51.59
2023-01-15T20:46:58.205Z,51.49
2023-01-15T20:48:59.758Z,51.23
2023-01-15T20:51:10.597Z,50.98
2023-01-15T20:53:13.483Z,50.99
2023-01-15T20:55:16.043Z,51.39
2023-01-15T20:57:17.665Z,51.32
2023-01-15T20:59:19.445Z,50.69
2023-01-15T21:01:21.103Z,50.52
2023-01-15T21:03:22.803Z,50.73
2023-01-15T21:05:25.590Z,51.01
2023-01-15T21:07:27.175Z,51.23
2023-01-15T21:09:30.335Z,50.77
2023-01-15T21:11:31.858Z,50.91
2023-01-15T21:13:33.400Z,51.18
2023-01-15T21:15:35.008Z,50.77
2023-01-15T21:17:37.405Z,51.34
2023-01-15T21:19:38.996Z,51.12
2023-01-15T21:21:40.589Z,51.12
2023-01-15T21:23:42.153Z,51.28
2023-01-15T21:25:45.181Z,51.53
2023-01-15T21:27:46.873Z,51.49
2023-01-15T21:29:48.615Z,52.09
2023-01-15T21:31:50.711Z,52.06
2023-01-15T21:33:53.041Z,51.86
2023-01-15T21:35:54.611Z,51.67
2023-01-15T21:37:56.174Z,51.92
2023-01-15T21:39:57.731Z,52.11
2023-01-15T21:42:00.988Z,52.20
2023-01-15T21:44:02.882Z,52.54
2023-01-15T21:46:05.964Z,52.67
2023-01-15T21:48:07.545Z,52.71
2023-01-15T21:50:10.127Z,52.98
2023-01-15T21:52:14.025Z,52.72
2023-01-15T21:54:15.918Z,52.70
2023-01-15T21:56:17.544Z,52.14
2023-01-15T21:58:20.527Z,52.10
2023-01-15T22:00:22.507Z,52.37
2023-01-15T22:02:24.434Z,52.70
2023-01-15T22:04:27.784Z,52.71
2023-01-15T22:06:29.405Z,53.31
2023-01-15T22:08:31.082Z,53.20
2023-01-15T22:10:32.808Z,53.25
2023-01-15T22:12:34.363Z,53.46
2023-01-15T22:14:37.377Z,53.09
2023-01-15T22:16:39.327Z,53.15
2023-01-15T22:18:43.392Z,53.06
2023-01-15T22:20:45.056Z,53.47
2023-01-15T22:22:46.902Z,53.33
2023-01-15T22:24:54.468Z,53.15
2023-01-15T22:26:56.203Z,53.39
2023-01-15T22:28:58.414Z,52.60
2023-01-15T22:31:05.808Z,52.92
2023-01-15T22:33:07.399Z,52.81
2023-01-15T22:35:09.505Z,52.24
2023-01-15T22:37:13.107Z,52.43
2023-01-15T22:39:14.696Z,52.23
2023-01-15T22:41:16.207Z,52.05
2023-01-15T22:43:17.766Z,51.49
2023-01-15T22:45:20.725Z,51.58
2023-01-15T22:47:23.871Z,51.76
2023-01-15T22:49:25.712Z,52.02
2023-01-15T22:51:27.330Z,51.42
2023-01-15T22:53:29.036Z,51.15
2023-01-15T22:55:30.647Z,51.24
2023-01-15T22:57:32.196Z,51.06
2023-01-15T22:59:33.788Z,50.87
2023-01-15T23:01:35.348Z,51.32
2023-01-15T23:03:38.459Z,51.14
2023-01-15T23:05:40.389Z,51.39
2023-01-15T23:07:42.026Z,51.30
2023-01-15T23:09:43.563Z,50.71
2023-01-15T23:11:45.305Z,50.61
2023-01-15T23:13:47.100Z,50.87
2023-01-15T23:15:57.626Z,50.70
2023-01-15T23:17:59.273Z,50.76
2023-01-15T23:20:02.170Z,50.68
2023-01-15T23:22:03.720Z,50.23
2023-01-15T23:24:05.943Z,50.52
2023-01-15T23:26:09.794Z,50.35
2023-01-15T23:28:11.341Z,50.63
2023-01-15T23:30:13.615Z,50.60
2023-01-15T23:32:17.603Z,49.90
2023-01-15T23:34:19.248Z,50.40
2023-01-15T23:36:23.027Z,50.24
2023-01-15T23:38:24.709Z,49.92
2023-01-15T23:40:26.315Z,49.79
2023-01-15T23:42:27.893Z,50.31
2023-01-15T23:44:29.432Z,50.65
2023-01-15T23:46:31.461Z,50.71
2023-01-15T23:48:33.102Z,50.77
2023-01-15T23:50:34.763Z,50.43
2023-01-15T23:52:37.713Z,50.31
2023-01-15T23:54:39.300Z,50.36
2023-01-15T23:56:40.967Z,50.29
2023-01-15T23:58:42.522Z,50.23
